Time;durP1;ratioP1;P1;durP2;ratioP2;P2;SDS_P1;SDS_P2;PMS_P1;PMS_P2;Temp;Humidity;BMP_temperature;BMP_pressure;BME280_temperature;BME280_humidity;BME280_pressure;Samples;Min_cycle;Max_cycle;Signal;HPM_P1;HPM_P2
2023/07/16 00:02:10;;;;;;;;;;;;;;;27.44;40.97;100104.24;2397379;73;51413;-75
2023/07/16 00:05:11;;;;;;;;;;;;;;;27.44;40.95;100104.79;2363653;73;51159;-75
2023/07/16 00:08:13;;;;;;;;;;;;;;;27.43;41.01;100102.58;2395890;73;51402;-75
2023/07/16 00:11:14;;;;;;;;;;;;;;;27.43;41.02;100105.30;2397525;74;50257;-75
2023/07/16 00:14:16;;;;;;;;;;;;;;;27.44;41.04;100120.55;2363782;73;50283;-75
2023/07/16 00:17:18;;;;;;;;;;;;;;;27.44;41.05;100114.30;2361564;74;51076;-75
2023/07/16 00:20:19;;;;;;;;;;;;;;;27.44;41.10;100106.96;2390361;74;50630;-74
2023/07/16 00:23:21;;;;;;;;;;;;;;;27.44;41.13;100123.27;2362185;74;50288;-74
2023/07/16 00:26:22;;;;;;;;;;;;;;;27.44;41.15;100113.75;2395237;74;50422;-74
2023/07/16 00:29:24;;;;;;;;;;;;;;;27.44;41.16;100108.32;2389292;73;51825;-74
2023/07/16 00:32:26;;;;;;;;;;;;;;;27.43;41.18;100114.00;2335038;74;51000;-74
2023/07/16 00:35:27;;;;;;;;;;;;;;;27.43;41.22;100117.53;2395541;74;50749;-74
2023/07/16 00:38:29;;;;;;;;;;;;;;;27.45;41.21;100125.44;2396465;74;52348;-74
2023/07/16 00:41:31;;;;;;;;;;;;;;;27.43;41.23;100127.04;2338350;74;49666;-74
2023/07/16 00:44:33;;;;;;;;;;;;;;;27.43;41.26;100140.62;2365477;74;50639;-74
2023/07/16 00:47:34;;;;;;;;;;;;;;;27.44;41.25;100153.70;2362547;73;50699;-74
2023/07/16 00:50:39;;;;;;;;;;;;;;;27.43;41.30;100162.36;2398034;73;50672;-74
2023/07/16 00:53:39;;;;;;;;;;;;;;;27.45;41.28;100167.55;2393012;74;22296;-74
2023/07/16 00:56:41;;;;;;;;;;;;;;;27.44;41.32;100191.19;2398894;73;50620;-74
2023/07/16 00:59:43;;;;;;;;;;;;;;;27.43;41.33;100207.19;2400633;73;51397;-73
2023/07/16 01:02:44;;;;;;;;;;;;;;;27.44;41.34;100224.34;2400121;73;50704;-73
2023/07/16 01:05:48;;;;;;;;;;;;;;;27.44;41.34;100242.82;2391866;74;52381;-74
2023/07/16 01:09:08;;;;;;;;;;;;;;;27.44;41.41;100271.89;2363937;73;52494;-74
2023/07/16 01:12:10;;;;;;;;;;;;;;;27.44;41.36;100303.95;2392738;73;51472;-74
2023/07/16 01:15:12;;;;;;;;;;;;;;;27.44;41.40;100309.39;2399006;73;50664;-74
2023/07/16 01:18:13;;;;;;;;;;;;;;;27.44;41.47;100343.91;2380584;74;49956;-74
2023/07/16 01:21:16;;;;;;;;;;;;;;;27.44;41.51;100383.30;2363350;74;51333;-75
2023/07/16 01:24:28;;;;;;;;;;;;;;;27.44;41.52;100405.86;2395166;74;50660;-75
2023/07/16 01:27:35;;;;;;;;;;;;;;;27.44;41.52;100409.94;2394836;74;51385;-75
2023/07/16 01:30:38;;;;;;;;;;;;;;;27.44;41.55;100424.06;2395010;74;51396;-75
2023/07/16 01:33:40;;;;;;;;;;;;;;;27.44;41.53;100421.34;2389091;73;51173;-75
2023/07/16 01:36:42;;;;;;;;;;;;;;;27.44;41.54;100423.52;2394771;74;50349;-75
2023/07/16 01:39:43;;;;;;;;;;;;;;;27.45;41.61;100418.91;2395008;74;50368;-75
2023/07/16 01:42:45;;;;;;;;;;;;;;;27.44;41.59;100412.66;2388965;74;52531;-74
2023/07/16 01:45:47;;;;;;;;;;;;;;;27.44;41.62;100396.89;2334060;74;52419;-75
2023/07/16 01:48:48;;;;;;;;;;;;;;;27.44;41.61;100401.78;2395576;74;51432;-75
2023/07/16 01:51:50;;;;;;;;;;;;;;;27.45;41.63;100405.32;2334669;74;51907;-75
2023/07/16 01:54:51;;;;;;;;;;;;;;;27.44;41.70;100389.55;2395041;73;51490;-75
2023/07/16 01:57:53;;;;;;;;;;;;;;;27.44;41.71;100389.55;2334654;74;52436;-75
2023/07/16 02:00:54;;;;;;;;;;;;;;;27.44;41.80;100390.91;2361204;74;50259;-75
2023/07/16 02:03:56;;;;;;;;;;;;;;;27.44;41.80;100405.86;2334893;74;51195;-75
2023/07/16 02:06:58;;;;;;;;;;;;;;;27.44;41.89;100412.66;2361171;74;50399;-75
2023/07/16 02:09:59;;;;;;;;;;;;;;;27.44;41.94;100397.70;2389167;74;51126;-76
2023/07/16 02:13:01;;;;;;;;;;;;;;;27.44;41.98;100377.33;2395054;74;50329;-77
2023/07/16 02:16:02;;;;;;;;;;;;;;;27.45;41.98;100365.38;2394944;73;50729;-75
2023/07/16 02:19:04;;;;;;;;;;;;;;;27.46;41.98;100371.63;2395707;73;51490;-75
2023/07/16 02:22:06;;;;;;;;;;;;;;;27.45;42.10;100370.81;2389256;74;52651;-76
2023/07/16 02:25:07;;;;;;;;;;;;;;;27.45;42.15;100380.86;2361487;74;50705;-76
2023/07/16 02:28:09;;;;;;;;;;;;;;;27.45;42.22;100392.55;2361308;74;50188;-75
2023/07/16 02:31:10;;;;;;;;;;;;;;;27.44;42.22;100396.34;2361464;74;50675;-76
2023/07/16 02:34:12;;;;;;;;;;;;;;;27.46;42.31;100413.23;2334869;74;52486;-76
2023/07/16 02:37:14;;;;;;;;;;;;;;;27.45;42.31;100430.59;2361309;74;51653;-74
2023/07/16 02:40:15;;;;;;;;;;;;;;;27.46;42.34;100405.08;2361508;74;51407;-74
2023/07/16 02:43:17;;;;;;;;;;;;;;;27.45;42.36;100389.83;2361373;74;51504;-75
2023/07/16 02:46:18;;;;;;;;;;;;;;;27.44;42.35;100396.34;2334731;74;50880;-76
2023/07/16 02:49:20;;;;;;;;;;;;;;;27.45;42.40;100403.41;2362304;74;50365;-75
2023/07/16 02:52:22;;;;;;;;;;;;;;;27.45;42.43;100418.36;2395326;74;50597;-76
2023/07/16 02:55:23;;;;;;;;;;;;;;;27.45;42.55;100410.75;2395186;74;50287;-76
2023/07/16 02:58:25;;;;;;;;;;;;;;;27.46;42.52;100426.83;2388959;74;51140;-75
2023/07/16 03:01:26;;;;;;;;;;;;;;;27.46;42.63;100435.48;2361564;74;50615;-75
2023/07/16 03:04:28;;;;;;;;;;;;;;;27.45;42.57;100440.64;2395163;74;51383;-76
2023/07/16 03:07:30;;;;;;;;;;;;;;;27.45;42.69;100435.20;2395031;74;51505;-75
2023/07/16 03:10:31;;;;;;;;;;;;;;;27.45;42.64;100441.46;2389261;74;52343;-75
2023/07/16 03:13:33;;;;;;;;;;;;;;;27.46;42.62;100432.26;2361684;74;51432;-75
2023/07/16 03:16:34;;;;;;;;;;;;;;;27.45;42.65;100406.13;2358995;74;50656;-76
2023/07/16 03:19:36;;;;;;;;;;;;;;;27.46;42.57;100401.52;2395933;73;50336;-75
2023/07/16 03:22:37;;;;;;;;;;;;;;;27.45;42.59;100383.03;2389162;74;51191;-76
2023/07/16 03:25:39;;;;;;;;;;;;;;;27.45;42.64;100394.45;2395261;73;50612;-76
2023/07/16 03:28:41;;;;;;;;;;;;;;;27.44;42.59;100388.20;2361381;74;51426;-76
2023/07/16 03:31:42;;;;;;;;;;;;;;;27.44;42.59;100380.05;2395130;74;51487;-76
2023/07/16 03:34:44;;;;;;;;;;;;;;;27.45;42.57;100378.96;2389214;74;51354;-74
2023/07/16 03:37:45;;;;;;;;;;;;;;;27.45;42.63;100389.83;2394952;74;51500;-74
2023/07/16 03:40:47;;;;;;;;;;;;;;;27.45;42.58;100391.73;2395188;73;51480;-75
2023/07/16 03:43:49;;;;;;;;;;;;;;;27.44;42.58;100404.50;2395142;74;50663;-75
2023/07/16 03:46:51;;;;;;;;;;;;;;;27.43;42.58;100391.97;2334285;74;53124;-75
2023/07/16 03:49:52;;;;;;;;;;;;;;;27.45;42.52;100351.79;2389798;74;51425;-75
2023/07/16 03:52:54;;;;;;;;;;;;;;;27.45;42.52;100380.32;2395175;74;51489;-75
2023/07/16 03:55:55;;;;;;;;;;;;;;;27.44;42.52;100369.17;2361565;74;50144;-75
2023/07/16 03:58:57;;;;;;;;;;;;;;;27.44;42.48;100379.23;2389035;74;51145;-75
2023/07/16 04:01:58;;;;;;;;;;;;;;;27.43;42.49;100377.02;2395118;74;50240;-74
2023/07/16 04:05:00;;;;;;;;;;;;;;;27.44;42.53;100382.77;2395079;74;50703;-75
2023/07/16 04:08:02;;;;;;;;;;;;;;;27.43;42.56;100402.84;2394850;74;51605;-74
2023/07/16 04:11:04;;;;;;;;;;;;;;;27.44;42.49;100399.06;2334851;74;51709;-75
2023/07/16 04:14:05;;;;;;;;;;;;;;;27.44;42.54;100404.50;2361437;74;50696;-75
2023/07/16 04:17:07;;;;;;;;;;;;;;;27.43;42.49;100401.48;2361636;74;51522;-75
2023/07/16 04:20:09;;;;;;;;;;;;;;;27.45;42.51;100393.91;2395463;74;51393;-75
2023/07/16 04:23:10;;;;;;;;;;;;;;;27.45;42.50;100394.45;2361075;74;50803;-75
2023/07/16 04:26:12;;;;;;;;;;;;;;;27.45;42.52;100399.88;2394683;74;51414;-76
2023/07/16 04:29:13;;;;;;;;;;;;;;;27.43;42.51;100406.91;2361549;74;51511;-75
2023/07/16 04:32:15;;;;;;;;;;;;;;;27.43;42.53;100410.98;2361383;74;51352;-75
2023/07/16 04:35:17;;;;;;;;;;;;;;;27.44;42.53;100430.31;2395074;74;50222;-75
2023/07/16 04:38:19;;;;;;;;;;;;;;;27.43;42.51;100427.29;2361588;74;50627;-75
2023/07/16 04:41:22;;;;;;;;;;;;;;;27.44;42.54;100425.42;2395107;74;50722;-75
2023/07/16 04:44:23;;;;;;;;;;;;;;;27.43;42.57;100434.08;2395082;74;50689;-76
2023/07/16 04:47:25;;;;;;;;;;;;;;;27.44;42.53;100437.66;2334499;73;50828;-74
2023/07/16 04:50:26;;;;;;;;;;;;;;;27.44;42.53;100432.22;2391475;73;50441;-75
2023/07/16 04:53:28;;;;;;;;;;;;;;;27.43;42.56;100430.01;2391465;74;50629;-76
2023/07/16 04:56:30;;;;;;;;;;;;;;;27.43;42.58;100453.11;2397294;74;52331;-75
2023/07/16 04:59:31;;;;;;;;;;;;;;;27.43;42.60;100455.83;2397578;74;50636;-76
2023/07/16 05:02:33;;;;;;;;;;;;;;;27.42;42.57;100453.38;2391774;74;51482;-75
2023/07/16 05:05:34;;;;;;;;;;;;;;;27.43;42.58;100446.31;2397486;74;51361;-75
2023/07/16 05:08:36;;;;;;;;;;;;;;;27.44;42.57;100460.75;2391248;73;50635;-75
2023/07/16 05:11:38;;;;;;;;;;;;;;;27.43;42.54;100480.28;2391426;74;52487;-76
2023/07/16 05:14:46;;;;;;;;;;;;;;;27.43;42.63;100487.61;2391677;74;50698;-76
2023/07/16 05:17:48;;;;;;;;;;;;;;;27.43;42.61;100488.44;2391369;74;51540;-76
2023/07/16 05:20:50;;;;;;;;;;;;;;;27.44;42.64;100494.17;2350236;75;52452;-75
2023/07/16 05:23:51;;;;;;;;;;;;;;;27.44;42.69;100494.17;2323558;75;52373;-76
2023/07/16 05:26:54;;;;;;;;;;;;;;;27.46;42.61;100487.97;2355692;75;51420;-75
2023/07/16 05:29:55;;;;;;;;;;;;;;;27.63;42.77;100487.13;2356014;75;51456;-75
2023/07/16 05:32:57;;;;;;;;;;;;;;;27.54;43.11;100478.03;2355936;75;51550;-76
2023/07/16 05:35:59;;;;;;;;;;;;;;;27.58;42.88;100475.09;2323456;75;52302;-75
2023/07/16 05:39:00;;;;;;;;;;;;;;;27.68;43.43;100473.63;2355633;74;51389;-75
2023/07/16 05:42:02;;;;;;;;;;;;;;;27.61;43.50;100473.77;2350223;75;50247;-76
2023/07/16 05:45:04;;;;;;;;;;;;;;;27.60;43.54;100485.73;2350144;75;51571;-76
2023/07/16 05:48:05;;;;;;;;;;;;;;;27.60;43.49;100492.53;2358754;74;52316;-75
2023/07/16 05:51:07;;;;;;;;;;;;;;;27.67;43.31;100497.78;2361669;74;51492;-75
2023/07/16 05:54:09;;;;;;;;;;;;;;;27.73;43.55;100507.69;2395137;74;51426;-75
2023/07/16 05:57:10;;;;;;;;;;;;;;;27.71;43.76;100499.77;2394904;74;51522;-75
2023/07/16 06:00:13;;;;;;;;;;;;;;;27.74;43.79;100499.26;2334955;74;52371;-75
2023/07/16 06:03:16;;;;;;;;;;;;;;;27.87;43.75;100500.84;2361659;74;50411;-76
2023/07/16 06:06:18;;;;;;;;;;;;;;;27.97;43.79;100506.98;2361683;74;51574;-75
2023/07/16 06:09:19;;;;;;;;;;;;;;;28.06;43.66;100504.68;2361518;74;51498;-75
2023/07/16 06:12:21;;;;;;;;;;;;;;;28.06;43.73;100511.48;2334857;74;52135;-75
2023/07/16 06:15:22;;;;;;;;;;;;;;;28.11;43.58;100513.73;2394939;74;50207;-76
2023/07/16 06:18:24;;;;;;;;;;;;;;;28.19;43.46;100508.40;2382208;73;50023;-76
2023/07/16 06:21:26;;;;;;;;;;;;;;;28.27;43.29;100499.80;2363440;74;50137;-75
2023/07/16 06:24:27;;;;;;;;;;;;;;;28.29;43.26;100499.55;2391362;74;50311;-76
2023/07/16 06:27:29;;;;;;;;;;;;;;;28.16;43.58;100514.34;2391166;74;51350;-76
2023/07/16 06:30:32;;;;;;;;;;;;;;;28.29;43.31;100509.08;2397476;74;50336;-75
2023/07/16 06:33:33;;;;;;;;;;;;;;;28.33;43.31;100516.47;2391549;74;51601;-75
2023/07/16 06:36:35;;;;;;;;;;;;;;;28.38;43.33;100515.17;2391074;73;52314;-75
2023/07/16 06:39:37;;;;;;;;;;;;;;;28.43;43.30;100514.42;2391411;73;51370;-75
2023/07/16 06:42:38;;;;;;;;;;;;;;;28.46;43.34;100527.55;2391408;73;51410;-75
2023/07/16 06:45:40;;;;;;;;;;;;;;;28.50;43.33;100522.45;2391359;73;50325;-76
2023/07/16 06:48:41;;;;;;;;;;;;;;;28.53;43.33;100534.19;2362090;74;51202;-76
2023/07/16 06:51:43;;;;;;;;;;;;;;;28.56;43.24;100533.67;2361514;74;50635;-76
2023/07/16 06:54:44;;;;;;;;;;;;;;;28.59;43.28;100539.97;2361370;74;51394;-76
2023/07/16 06:57:46;;;;;;;;;;;;;;;28.64;43.20;100526.42;2394718;74;51419;-75
2023/07/16 07:00:48;;;;;;;;;;;;;;;28.66;43.18;100533.80;2389202;74;51640;-75
2023/07/16 07:03:49;;;;;;;;;;;;;;;28.67;43.12;100539.55;2361420;74;51569;-76
2023/07/16 07:06:51;;;;;;;;;;;;;;;28.71;43.05;100539.31;2361137;74;51269;-75
2023/07/16 07:09:52;;;;;;;;;;;;;;;28.73;43.00;100534.44;2394927;74;51386;-76
2023/07/16 07:12:54;;;;;;;;;;;;;;;28.62;43.15;100537.58;2389045;74;49498;-76
2023/07/16 07:15:56;;;;;;;;;;;;;;;28.55;43.25;100553.81;2361207;74;51489;-75
2023/07/16 07:18:58;;;;;;;;;;;;;;;28.47;43.32;100555.62;2394892;74;50271;-75
2023/07/16 07:21:59;;;;;;;;;;;;;;;28.45;43.35;100547.69;2361365;74;50665;-76
2023/07/16 07:25:01;;;;;;;;;;;;;;;28.46;43.32;100567.56;2388760;74;51544;-76
2023/07/16 07:28:03;;;;;;;;;;;;;;;28.47;43.26;100571.41;2361130;74;53497;-75
2023/07/16 07:31:05;;;;;;;;;;;;;;;28.42;43.36;100577.56;2361481;74;50006;-75
2023/07/16 07:34:06;;;;;;;;;;;;;;;28.39;43.33;100571.27;2394826;74;50722;-75
2023/07/16 07:37:08;;;;;;;;;;;;;;;28.38;43.27;100575.05;2388793;73;52462;-76
2023/07/16 07:40:10;;;;;;;;;;;;;;;28.38;43.23;100577.77;2361829;74;50300;-76
2023/07/16 07:43:12;;;;;;;;;;;;;;;28.41;43.15;100573.20;2395108;74;50356;-75
2023/07/16 07:46:13;;;;;;;;;;;;;;;28.39;43.41;100582.16;2395118;73;50289;-74
2023/07/16 07:49:15;;;;;;;;;;;;;;;28.46;43.30;100581.17;2390623;73;49598;-75
2023/07/16 07:52:16;;;;;;;;;;;;;;;28.50;43.25;100577.70;2391592;74;50819;-75
2023/07/16 07:55:18;;;;;;;;;;;;;;;28.49;43.26;100575.22;2397462;73;51365;-75
2023/07/16 07:58:20;;;;;;;;;;;;;;;28.44;43.42;100574.09;2391458;73;50603;-75
2023/07/16 08:01:21;;;;;;;;;;;;;;;28.41;43.48;100579.16;2363695;74;52482;-75
2023/07/16 08:04:23;;;;;;;;;;;;;;;28.39;43.45;100578.61;2391656;74;50147;-75
2023/07/16 08:07:25;;;;;;;;;;;;;;;28.35;43.46;100586.44;2397246;74;50309;-75
2023/07/16 08:10:27;;;;;;;;;;;;;;;28.33;43.38;100591.30;2397481;74;51555;-75
2023/07/16 08:13:29;;;;;;;;;;;;;;;28.32;43.28;100592.93;2391513;74;51462;-74
2023/07/16 08:16:30;;;;;;;;;;;;;;;28.31;43.24;100594.83;2390949;74;50747;-75
2023/07/16 08:19:32;;;;;;;;;;;;;;;28.33;43.11;100595.92;2396122;74;51498;-75
2023/07/16 08:22:33;;;;;;;;;;;;;;;28.35;43.08;100590.52;2391558;74;51415;-76
2023/07/16 08:25:35;;;;;;;;;;;;;;;28.35;43.29;100603.31;2391402;74;50234;-77
2023/07/16 08:28:36;;;;;;;;;;;;;;;28.31;43.30;100608.44;2391382;74;50280;-75
2023/07/16 08:31:38;;;;;;;;;;;;;;;28.29;43.28;100607.86;2391443;74;50621;-76
2023/07/16 08:34:40;;;;;;;;;;;;;;;28.28;43.25;100618.44;2391574;74;50719;-76
2023/07/16 08:37:41;;;;;;;;;;;;;;;28.32;43.12;100611.98;2391222;74;50812;-76
2023/07/16 08:40:43;;;;;;;;;;;;;;;28.34;43.22;100621.55;2391572;74;51584;-76
2023/07/16 08:43:46;;;;;;;;;;;;;;;28.34;43.21;100625.62;2397489;74;51254;-76
2023/07/16 08:46:48;;;;;;;;;;;;;;;28.34;43.22;100631.06;2393103;74;49961;-76
2023/07/16 08:49:54;;;;;;;;;;;;;;;28.35;43.30;100630.52;2389783;73;51151;-77
2023/07/16 08:52:56;;;;;;;;;;;;;;;28.35;43.28;100623.72;2394309;74;50259;-76
2023/07/16 08:55:57;;;;;;;;;;;;;;;28.34;43.25;100621.55;2394992;74;50637;-75
2023/07/16 08:58:59;;;;;;;;;;;;;;;28.35;43.19;100621.81;2394981;73;51461;-74
2023/07/16 09:02:01;;;;;;;;;;;;;;;28.32;43.21;100624.22;2389117;74;52538;-74
2023/07/16 09:05:03;;;;;;;;;;;;;;;28.32;43.10;100631.84;2361425;74;50708;-74
2023/07/16 09:08:04;;;;;;;;;;;;;;;28.29;43.15;100625.55;2361113;74;50285;-74
2023/07/16 09:11:06;;;;;;;;;;;;;;;28.30;43.02;100628.54;2394954;74;50354;-75
2023/07/16 09:14:07;;;;;;;;;;;;;;;28.29;43.03;100634.25;2388899;73;49574;-74
2023/07/16 09:17:09;;;;;;;;;;;;;;;28.28;43.00;100637.48;2390687;74;50264;-74
2023/07/16 09:20:11;;;;;;;;;;;;;;;28.29;42.87;100640.52;2395750;74;50712;-74
2023/07/16 09:23:12;;;;;;;;;;;;;;;28.29;42.95;100630.98;2361317;74;50265;-75
2023/07/16 09:26:14;;;;;;;;;;;;;;;28.29;42.86;100636.97;2394728;74;50433;-74
2023/07/16 09:29:16;;;;;;;;;;;;;;;28.28;42.83;100637.48;2361566;74;51520;-74
2023/07/16 09:32:18;;;;;;;;;;;;;;;28.27;42.77;100639.93;2394954;74;51504;-74
2023/07/16 09:35:19;;;;;;;;;;;;;;;28.27;42.73;100632.31;2394820;74;51434;-74
2023/07/16 09:38:21;;;;;;;;;;;;;;;28.29;42.68;100632.89;2334545;74;52345;-73
2023/07/16 09:41:23;;;;;;;;;;;;;;;28.29;42.64;100639.16;2394904;74;50719;-75
2023/07/16 09:44:24;;;;;;;;;;;;;;;28.30;42.54;100633.98;2394920;74;52161;-74
2023/07/16 09:47:26;;;;;;;;;;;;;;;28.28;42.58;100636.13;2356699;74;50671;-75
2023/07/16 09:50:28;;;;;;;;;;;;;;;28.28;42.56;100642.92;2389426;74;52666;-74
2023/07/16 09:53:30;;;;;;;;;;;;;;;28.27;42.53;100645.38;2361298;74;50341;-74
2023/07/16 09:56:33;;;;;;;;;;;;;;;28.26;42.50;100647.81;2394608;73;51438;-75
2023/07/16 09:59:35;;;;;;;;;;;;;;;28.25;42.48;100647.51;2385982;74;51401;-74
2023/07/16 10:02:37;;;;;;;;;;;;;;;28.26;42.47;100660.57;2361163;74;50144;-75
2023/07/16 10:05:38;;;;;;;;;;;;;;;28.24;42.46;100655.39;2388937;74;49546;-75
2023/07/16 10:08:40;;;;;;;;;;;;;;;28.23;42.48;100659.17;2394668;74;50376;-75
2023/07/16 10:11:42;;;;;;;;;;;;;;;28.22;42.47;100658.89;2394981;74;51356;-75
2023/07/16 10:14:48;;;;;;;;;;;;;;;28.23;42.46;100668.70;2389069;74;52560;-74
2023/07/16 10:17:51;;;;;;;;;;;;;;;28.23;42.44;100659.17;2389098;74;50269;-75
2023/07/16 10:20:52;;;;;;;;;;;;;;;28.22;42.40;100655.63;2395259;73;50515;-75
2023/07/16 10:23:58;;;;;;;;;;;;;;;28.21;42.40;100655.90;2361333;74;50425;-74
2023/07/16 10:27:00;;;;;;;;;;;;;;;28.21;42.40;100664.06;2388720;74;51189;-74
2023/07/16 10:30:04;;;;;;;;;;;;;;;28.21;42.34;100658.08;2395016;74;49932;-74
2023/07/16 10:33:12;;;;;;;;;;;;;;;28.21;42.32;100664.88;2394851;74;50487;-75
2023/07/16 10:36:16;;;;;;;;;;;;;;;28.21;42.25;100666.78;2394715;74;52476;-74
2023/07/16 10:39:17;;;;;;;;;;;;;;;28.21;42.21;100656.72;2361228;74;51009;-75
2023/07/16 10:42:19;;;;;;;;;;;;;;;28.22;42.16;100660.25;2361333;74;51524;-74
2023/07/16 10:45:21;;;;;;;;;;;;;;;28.23;42.10;100661.89;2394864;74;51479;-74
2023/07/16 10:48:24;;;;;;;;;;;;;;;28.21;42.12;100666.23;2395623;73;50250;-74
2023/07/16 10:51:26;;;;;;;;;;;;;;;28.23;41.99;100667.33;2323465;75;51724;-73
2023/07/16 10:54:28;;;;;;;;;;;;;;;28.22;42.01;100677.94;2323576;74;51550;-74
2023/07/16 10:57:29;;;;;;;;;;;;;;;28.23;41.99;100678.22;2323414;75;51388;-74
2023/07/16 11:00:31;;;;;;;;;;;;;;;28.18;42.09;100668.09;2355760;74;52495;-74
2023/07/16 11:03:32;;;;;;;;;;;;;;;28.19;42.09;100679.26;2323478;75;52337;-73
2023/07/16 11:06:35;;;;;;;;;;;;;;;28.19;42.09;100677.90;2355392;74;51309;-73
2023/07/16 11:09:43;;;;;;;;;;;;;;;28.18;42.13;100683.06;2323684;75;50681;-74
2023/07/16 11:12:45;;;;;;;;;;;;;;;28.17;42.19;100686.84;2323991;75;50543;-74
2023/07/16 11:15:46;;;;;;;;;;;;;;;28.17;42.19;100669.16;2323626;75;51638;-74
2023/07/16 11:18:48;;;;;;;;;;;;;;;28.18;42.19;100676.77;2394150;73;51573;-74
2023/07/16 11:21:50;;;;;;;;;;;;;;;28.21;42.14;100677.66;2361590;74;51564;-74
2023/07/16 11:24:51;;;;;;;;;;;;;;;28.19;42.15;100681.16;2395036;74;50366;-75
2023/07/16 11:27:55;;;;;;;;;;;;;;;28.18;42.13;100677.63;2388680;74;51168;-74
2023/07/16 11:30:56;;;;;;;;;;;;;;;28.16;42.18;100670.23;2394996;74;50387;-75
2023/07/16 11:34:00;;;;;;;;;;;;;;;28.17;42.16;100673.77;2394836;74;50632;-75
2023/07/16 11:37:09;;;;;;;;;;;;;;;28.16;42.18;100669.42;2394816;74;51480;-75
2023/07/16 11:40:11;;;;;;;;;;;;;;;28.18;42.12;100668.61;2334947;74;52475;-74
2023/07/16 11:43:13;;;;;;;;;;;;;;;28.17;42.13;100673.77;2361364;74;50625;-74
2023/07/16 11:46:16;;;;;;;;;;;;;;;28.16;42.16;100670.23;2390181;74;52495;-74
2023/07/16 11:49:17;;;;;;;;;;;;;;;28.20;42.07;100667.83;2393132;73;50449;-74
2023/07/16 11:52:20;;;;;;;;;;;;;;;28.21;42.06;100673.58;2334812;74;51208;-74
2023/07/16 11:55:21;;;;;;;;;;;;;;;28.22;42.03;100667.06;2361416;74;50477;-75
2023/07/16 11:58:23;;;;;;;;;;;;;;;28.22;41.98;100669.23;2394536;73;51544;-74
2023/07/16 12:01:25;;;;;;;;;;;;;;;28.21;41.98;100664.88;2394866;74;52198;-74
2023/07/16 12:04:26;;;;;;;;;;;;;;;28.19;41.95;100665.66;2334495;74;52432;-74
2023/07/16 12:07:32;;;;;;;;;;;;;;;28.18;41.92;100658.58;2361217;74;51581;-76
2023/07/16 12:10:34;;;;;;;;;;;;;;;28.20;41.78;100657.77;2395040;74;50239;-76
2023/07/16 12:13:35;;;;;;;;;;;;;;;28.22;41.69;100664.34;2394913;74;50644;-75
2023/07/16 12:16:37;;;;;;;;;;;;;;;28.23;41.59;100672.77;2326624;74;50923;-75
2023/07/16 12:19:38;;;;;;;;;;;;;;;28.22;41.43;100668.42;2395522;73;50611;-75
2023/07/16 12:22:40;;;;;;;;;;;;;;;28.22;41.21;100673.86;2361235;74;50705;-75
2023/07/16 12:25:43;;;;;;;;;;;;;;;28.23;41.16;100679.58;2361134;74;51439;-75
2023/07/16 12:28:44;;;;;;;;;;;;;;;28.20;40.97;100682.26;2334829;74;49618;-75
2023/07/16 12:31:46;;;;;;;;;;;;;;;28.22;40.88;100691.00;2394765;74;50249;-75
2023/07/16 12:34:47;;;;;;;;;;;;;;;28.21;40.71;100691.27;2394823;74;50659;-75
2023/07/16 12:37:49;;;;;;;;;;;;;;;28.22;40.52;100686.92;2361135;74;51440;-75
2023/07/16 12:40:51;;;;;;;;;;;;;;;28.22;40.46;100683.38;2388939;74;52332;-75
2023/07/16 12:43:52;;;;;;;;;;;;;;;28.20;40.29;100668.66;2394828;74;51409;-76
2023/07/16 12:46:54;;;;;;;;;;;;;;;28.18;40.29;100683.06;2385964;74;50235;-75
2023/07/16 12:49:55;;;;;;;;;;;;;;;28.16;40.22;100691.19;2362038;74;50046;-76
2023/07/16 12:52:57;;;;;;;;;;;;;;;28.15;40.19;100684.07;2388822;74;51150;-76
2023/07/16 12:55:58;;;;;;;;;;;;;;;28.13;40.13;100691.14;2394821;74;50614;-75
2023/07/16 12:59:00;;;;;;;;;;;;;;;28.14;40.15;100675.09;2361024;74;51477;-76
2023/07/16 13:02:02;;;;;;;;;;;;;;;28.16;39.99;100672.14;2361169;74;51382;-76
2023/07/16 13:05:04;;;;;;;;;;;;;;;28.19;39.84;100674.36;2388957;74;51708;-75
2023/07/16 13:08:05;;;;;;;;;;;;;;;28.20;39.79;100680.89;2394723;74;50270;-76
2023/07/16 13:11:07;;;;;;;;;;;;;;;28.23;39.75;100672.77;2361287;74;51544;-76
2023/07/16 13:14:09;;;;;;;;;;;;;;;28.21;39.69;100677.13;2394750;74;51482;-74
2023/07/16 13:17:11;;;;;;;;;;;;;;;28.19;39.67;100677.08;2385332;74;51493;-75
2023/07/16 13:20:13;;;;;;;;;;;;;;;28.20;39.71;100676.00;2395557;73;50282;-75
2023/07/16 13:23:14;;;;;;;;;;;;;;;28.21;39.66;100684.47;2361281;74;50774;-75
2023/07/16 13:26:16;;;;;;;;;;;;;;;28.18;39.76;100684.94;2394549;74;51459;-75
2023/07/16 13:29:17;;;;;;;;;;;;;;;28.17;39.74;100694.18;2334703;74;52495;-75
2023/07/16 13:32:19;;;;;;;;;;;;;;;28.17;39.69;100684.66;2361089;74;51538;-75
2023/07/16 13:35:21;;;;;;;;;;;;;;;28.19;39.63;100697.48;2394838;74;51406;-75
2023/07/16 13:38:22;;;;;;;;;;;;;;;28.16;39.66;100691.19;2394431;74;50778;-75
2023/07/16 13:41:24;;;;;;;;;;;;;;;28.18;39.57;100693.09;2334650;74;50407;-75
2023/07/16 13:44:25;;;;;;;;;;;;;;;28.20;39.46;100700.48;2361164;74;50265;-75
2023/07/16 13:47:27;;;;;;;;;;;;;;;28.20;39.42;100699.13;2351225;74;50759;-74
2023/07/16 13:50:32;;;;;;;;;;;;;;;28.17;39.46;100695.54;2361892;74;51501;-76
2023/07/16 13:53:33;;;;;;;;;;;;;;;28.19;39.45;100698.30;2361499;74;51731;-76
2023/07/16 13:56:35;;;;;;;;;;;;;;;28.21;39.38;100704.87;2360952;74;51420;-76
2023/07/16 13:59:37;;;;;;;;;;;;;;;28.21;39.39;100695.35;2361176;74;51452;-75
2023/07/16 14:02:38;;;;;;;;;;;;;;;28.22;39.40;100705.15;2361280;74;50664;-74
2023/07/16 14:05:40;;;;;;;;;;;;;;;28.23;39.41;100702.70;2394709;74;50360;-76
2023/07/16 14:08:41;;;;;;;;;;;;;;;28.21;39.40;100713.85;2388332;73;49524;-75
2023/07/16 14:11:44;;;;;;;;;;;;;;;28.23;39.43;100706.28;2361061;74;50680;-76
2023/07/16 14:14:46;;;;;;;;;;;;;;;28.21;39.45;100715.75;2361659;74;51483;-75
2023/07/16 14:17:48;;;;;;;;;;;;;;;28.18;39.47;100710.78;2384090;74;50408;-74
2023/07/16 14:20:49;;;;;;;;;;;;;;;28.18;39.48;100727.11;2361952;74;51149;-75
2023/07/16 14:23:51;;;;;;;;;;;;;;;28.20;39.43;100723.61;2361220;74;50306;-74
2023/07/16 14:26:52;;;;;;;;;;;;;;;28.22;39.32;100714.67;2394448;74;50724;-77
2023/07/16 14:29:54;;;;;;;;;;;;;;;28.21;39.32;100713.85;2361166;74;51451;-75
2023/07/16 14:32:56;;;;;;;;;;;;;;;28.25;39.32;100711.45;2334605;74;51707;-76
2023/07/16 14:35:58;;;;;;;;;;;;;;;28.25;39.29;100717.44;2361565;74;51516;-75
2023/07/16 14:39:00;;;;;;;;;;;;;;;28.23;39.29;100728.05;2361097;74;52167;-74
2023/07/16 14:42:03;;;;;;;;;;;;;;;28.22;39.36;100718.75;2361363;74;51426;-74
2023/07/16 14:45:05;;;;;;;;;;;;;;;28.25;39.28;100719.62;2335228;74;51276;-76
2023/07/16 14:48:06;;;;;;;;;;;;;;;28.25;39.25;100721.52;2361676;74;52211;-76
2023/07/16 14:51:08;;;;;;;;;;;;;;;28.23;39.20;100723.11;2389466;74;51634;-75
2023/07/16 14:54:10;;;;;;;;;;;;;;;28.21;39.22;100730.18;2361262;74;50411;-75
2023/07/16 14:57:11;;;;;;;;;;;;;;;28.19;39.26;100728.23;2361229;74;51528;-75
2023/07/16 15:00:13;;;;;;;;;;;;;;;28.22;39.15;100717.39;2361306;74;51141;-75
2023/07/16 15:03:15;;;;;;;;;;;;;;;28.26;38.98;100706.83;2394896;74;51498;-76
2023/07/16 15:06:16;;;;;;;;;;;;;;;28.26;38.99;100709.55;2394676;74;51417;-76
2023/07/16 15:09:18;;;;;;;;;;;;;;;28.24;38.97;100707.09;2389087;74;52587;-77
2023/07/16 15:12:20;;;;;;;;;;;;;;;28.22;39.12;100714.67;2361533;74;51366;-75
2023/07/16 15:15:21;;;;;;;;;;;;;;;28.19;39.15;100709.73;2395021;74;50243;-75
2023/07/16 15:18:23;;;;;;;;;;;;;;;28.20;39.14;100705.92;2395791;73;50276;-76
2023/07/16 15:21:24;;;;;;;;;;;;;;;28.21;39.12;100708.95;2389374;74;49584;-75
2023/07/16 15:24:26;;;;;;;;;;;;;;;28.17;39.14;100702.34;2361333;74;50360;-75
2023/07/16 15:27:28;;;;;;;;;;;;;;;28.19;39.09;100708.37;2394647;73;51507;-76
2023/07/16 15:30:29;;;;;;;;;;;;;;;28.20;39.03;100701.30;2395048;74;50305;-75
2023/07/16 15:33:31;;;;;;;;;;;;;;;28.19;39.11;100702.92;2334659;74;51014;-74